Anselmo, Nebraska
Current Conditions -  °F | °C
As of 7:53 PM on Wednesday 26 Nov 2014 (Local Time) from KBBW Reporting Station
Broken Clouds Broken Clouds  
Wind Chill: -8°   Ceiling: 12000
Heat Index: -4°   Visibility: 10mi
Dew Point: -8°   Wind: 5mph
Humidity: 75%   Direction: 20°NNE
Pressure: 30.36"   Gusts: NA
Location:  41.62°N, 99.87°W
Report Text: KBBW 270153Z AUTO 02004KT 10SM BKN120 M04/M08 A3036 RMK AO2 SLP311 T10441083
Loading
Personal Weather Stations






























Interactive Weather Map New forecast layout! Learn more

10-Day Weather Forecast

Advertisements
Track Severe Weather on mobile